Sunday, May 27, 2018, 1:30 PM GMT
Back to Local

CWIS, Charlevoix CS , Que.

Location: , , Canada Lat: 47.283
Local Time: 1:30 PM GMT (13:30 GMT) Lon: -70.633
Time Zone: GMT Elev: 2358 ft

Show me the last for .
Show Coded

Time T Td Feel RH Dir Speed Gust Alt SLP Vis Weather Sky Remarks
2018-05-27 13:00 53 28 - 38 110° 5 - - 30.21 0 None
2018-05-27 12:00 49 31 - 48 120° 1 - - 30.21 0 None
2018-05-27 11:00 42 31 - 66 160° 2 - - 30.22 0 None
2018-05-27 10:00 31 30 - 96 - Calm - - 30.24 0 None
2018-05-27 09:00 30 28 - 93 110° 2 - - 30.23 0 None
2018-05-27 08:00 29 28 - 94 90° 2 - - 30.21 0 None
2018-05-27 07:00 31 28 - 89 60° 2 - - 30.20 0 None
2018-05-27 06:00 32 28 29 85 50° 3 - - 30.18 0 None
2018-05-27 05:00 34 29 31 83 50° 3 - - 30.18 0 None
2018-05-27 04:00 37 27 34 66 50° 3 - - 30.16 0 None
2018-05-27 03:00 43 26 40 51 40° 5 - - 30.14 0 None
2018-05-27 02:00 45 26 40 47 40° 8 - - 30.11 0 None
2018-05-27 00:00 47 27 43 45 50° 8 - - 30.05 0 None
2018-05-26 23:00 50 29 46 45 50° 8 - - 30.02 0 None
2018-05-26 22:00 51 28 - 40 40° 8 - - 30.00 0 None
2018-05-26 21:00 54 30 - 40 50° 8 17 - 29.97 0 None
2018-05-26 20:00 54 34 - 45 70° 8 - - 29.93 0 None
2018-05-26 19:00 54 36 - 50 50° 7 - - 29.90 0 None
2018-05-26 18:00 56 37 - 49 50° 7 - - 29.88 0 None
2018-05-26 17:00 56 32 - 39 40° 6 - - 29.85 0 None
2018-05-26 16:00 54 29 - 37 10° 6 - - 29.84 0 None
2018-05-26 15:00 50 36 - 58 40° 6 - - 29.82 0 None
2018-05-26 14:00 51 38 - 61 70° 7 - - 29.80 0 None

Support USWX by starting your Amazon purchase here.